Time;durP1;ratioP1;P1;durP2;ratioP2;P2;SDS_P1;SDS_P2;PMS_P1;PMS_P2;Temp;Humidity;BMP_temperature;BMP_pressure;BME280_temperature;BME280_humidity;BME280_pressure;Samples;Min_cycle;Max_cycle;Signal;HPM_P1;HPM_P2
2021/12/30 00:00:13;;;;;;;3.60;1.67;;;14.50;99.90;;;;;;5067123;28;20479;-47
2021/12/30 00:02:40;;;;;;;4.27;1.50;;;14.50;99.90;;;;;;5066260;28;20475;-47
2021/12/30 00:05:07;;;;;;;3.10;2.00;;;14.50;99.90;;;;;;5067101;28;20477;-47
2021/12/30 00:07:34;;;;;;;2.13;1.43;;;14.60;99.90;;;;;;5055863;28;20571;-48
2021/12/30 00:10:03;;;;;;;3.20;1.40;;;14.60;99.90;;;;;;5056670;27;20516;-48
2021/12/30 00:12:29;;;;;;;2.17;1.40;;;14.60;99.90;;;;;;5058700;28;20484;-48
2021/12/30 00:14:56;;;;;;;2.90;1.60;;;14.60;99.90;;;;;;5043945;28;21488;-48
2021/12/30 00:17:23;;;;;;;3.00;1.00;;;14.50;99.90;;;;;;5047955;28;20453;-47
2021/12/30 00:19:49;;;;;;;3.93;1.73;;;14.50;99.90;;;;;;5044713;28;20482;-47
2021/12/30 00:22:16;;;;;;;2.20;1.30;;;14.50;99.90;;;;;;5043228;28;20543;-48
2021/12/30 00:24:43;;;;;;;3.77;1.33;;;14.50;99.90;;;;;;5044591;28;20999;-48
2021/12/30 00:27:11;;;;;;;3.00;1.70;;;14.50;99.90;;;;;;5043565;28;20532;-48
2021/12/30 00:29:37;;;;;;;4.77;2.17;;;14.50;99.90;;;;;;5043737;28;20531;-48
2021/12/30 00:32:05;;;;;;;5.10;2.10;;;14.60;99.90;;;;;;5044529;28;20539;-53
2021/12/30 00:34:35;;;;;;;7.63;3.33;;;14.60;99.90;;;;;;5041387;28;20481;-48
2021/12/30 00:37:02;;;;;;;4.53;1.60;;;14.60;99.90;;;;;;5048567;28;20478;-48
2021/12/30 00:39:29;;;;;;;6.40;1.97;;;14.60;99.90;;;;;;5045118;28;20478;-47
2021/12/30 00:41:56;;;;;;;2.63;1.77;;;14.50;99.90;;;;;;5049370;28;20493;-50
2021/12/30 00:44:24;;;;;;;4.03;2.13;;;14.60;99.90;;;;;;5051436;28;20478;-47
2021/12/30 00:46:51;;;;;;;6.83;2.00;;;14.60;99.90;;;;;;5035001;28;20486;-48
2021/12/30 00:49:18;;;;;;;1.87;1.13;;;14.60;99.90;;;;;;5067461;28;20884;-47
2021/12/30 00:51:45;;;;;;;3.53;2.00;;;14.60;99.90;;;;;;5046041;28;20852;-48
2021/12/30 00:54:11;;;;;;;8.27;2.00;;;14.60;99.90;;;;;;5053537;28;20851;-47
2021/12/30 00:56:38;;;;;;;2.30;1.50;;;14.60;99.90;;;;;;5064665;28;20460;-48
2021/12/30 00:59:05;;;;;;;3.30;1.77;;;14.60;99.90;;;;;;5058771;28;20482;-48
2021/12/30 01:01:33;;;;;;;3.10;1.77;;;14.60;99.90;;;;;;5056430;28;20922;-47
2021/12/30 01:04:00;;;;;;;3.93;2.33;;;14.50;99.90;;;;;;5059354;28;21014;-48
2021/12/30 01:06:28;;;;;;;2.47;1.73;;;14.50;99.90;;;;;;5065631;28;20545;-52
2021/12/30 01:08:55;;;;;;;2.17;1.27;;;14.50;99.90;;;;;;5079080;28;20458;-48
2021/12/30 01:11:23;;;;;;;7.30;2.03;;;14.50;99.90;;;;;;5074389;28;20917;-48
2021/12/30 01:13:58;;;;;;;6.70;1.60;;;14.50;99.90;;;;;;5088990;27;20479;-48
2021/12/30 01:16:29;;;;;;;5.70;1.53;;;14.50;99.90;;;;;;5076525;28;20496;-48
2021/12/30 01:19:03;;;;;;;4.10;1.90;;;14.50;99.90;;;;;;5078915;28;20513;-48
2021/12/30 01:21:33;;;;;;;6.17;1.80;;;14.50;99.90;;;;;;5062703;28;20544;-48
2021/12/30 01:24:02;;;;;;;2.20;1.60;;;14.50;99.90;;;;;;5055158;28;20499;-48
2021/12/30 01:26:28;;;;;;;4.47;1.60;;;14.50;99.90;;;;;;5064836;28;20999;-48
2021/12/30 01:28:55;;;;;;;6.60;1.70;;;14.50;99.90;;;;;;5060860;28;21744;-48
2021/12/30 01:31:22;;;;;;;7.20;1.30;;;14.50;99.90;;;;;;5061437;28;20549;-47
2021/12/30 01:33:49;;;;;;;4.80;1.47;;;14.50;99.90;;;;;;5065284;28;20490;-48
2021/12/30 01:36:17;;;;;;;2.77;1.23;;;14.40;99.90;;;;;;5087361;28;20491;-48
2021/12/30 01:38:45;;;;;;;5.70;1.60;;;14.40;99.90;;;;;;5072674;28;20576;-48
2021/12/30 01:41:12;;;;;;;3.23;1.40;;;14.40;99.90;;;;;;5074688;28;21019;-48
2021/12/30 01:43:39;;;;;;;4.13;1.60;;;14.40;99.90;;;;;;5089017;27;21181;-47
2021/12/30 01:46:07;;;;;;;1.90;1.10;;;14.50;99.90;;;;;;5078199;28;20485;-48
2021/12/30 01:48:34;;;;;;;6.07;1.67;;;14.50;99.90;;;;;;5077099;28;20554;-48
2021/12/30 01:51:02;;;;;;;3.80;1.40;;;14.50;99.90;;;;;;5076422;28;20517;-48
2021/12/30 01:53:30;;;;;;;2.40;1.50;;;14.40;99.90;;;;;;5060321;28;20535;-47
2021/12/30 01:55:57;;;;;;;2.73;1.30;;;14.40;99.90;;;;;;5056815;28;20482;-48
2021/12/30 01:58:24;;;;;;;2.47;1.70;;;14.40;99.90;;;;;;5073016;28;20458;-51
2021/12/30 02:00:52;;;;;;;1.80;1.10;;;14.40;99.90;;;;;;5080892;28;21024;-48
2021/12/30 02:03:20;;;;;;;3.00;1.10;;;14.40;99.90;;;;;;5079718;28;20496;-48
2021/12/30 02:05:48;;;;;;;2.60;1.00;;;14.40;99.90;;;;;;5076373;28;20537;-48
2021/12/30 02:08:18;;;;;;;2.63;0.90;;;14.40;99.90;;;;;;5093670;27;20457;-47
2021/12/30 02:10:49;;;;;;;2.40;0.70;;;14.40;99.90;;;;;;5079590;27;20747;-48
2021/12/30 02:13:18;;;;;;;1.70;0.93;;;14.40;99.90;;;;;;5082389;28;20458;-48
2021/12/30 02:15:45;;;;;;;1.80;0.80;;;14.40;99.90;;;;;;5070366;28;20499;-47
2021/12/30 02:18:12;;;;;;;1.50;0.70;;;14.40;99.90;;;;;;5078652;28;20540;-47
2021/12/30 02:20:46;;;;;;;1.40;0.60;;;14.40;99.90;;;;;;5066042;27;20900;-48
2021/12/30 02:23:15;;;;;;;1.60;0.70;;;14.40;99.90;;;;;;5083653;27;20484;-48
2021/12/30 02:25:42;;;;;;;2.10;0.60;;;14.40;99.90;;;;;;5054601;28;20476;-48
2021/12/30 02:28:10;;;;;;;1.60;0.63;;;14.40;99.90;;;;;;5060584;28;20979;-48
2021/12/30 02:30:38;;;;;;;1.80;0.60;;;14.30;99.90;;;;;;5063748;28;20494;-48
2021/12/30 02:33:06;;;;;;;1.80;0.60;;;14.30;99.90;;;;;;5063410;28;20471;-48
2021/12/30 02:35:33;;;;;;;1.30;0.60;;;14.30;99.90;;;;;;5061945;28;20539;-47
2021/12/30 02:38:01;;;;;;;1.40;0.60;;;14.20;99.90;;;;;;5055877;28;20550;-48
2021/12/30 02:40:32;;;;;;;1.50;0.70;;;14.20;99.90;;;;;;5070722;28;20492;-48
2021/12/30 02:42:59;;;;;;;1.70;0.70;;;14.20;99.90;;;;;;5058250;28;20527;-48
2021/12/30 02:45:25;;;;;;;1.50;0.90;;;14.20;99.90;;;;;;5053703;28;20530;-48
2021/12/30 02:47:52;;;;;;;2.50;0.90;;;14.20;99.90;;;;;;5056200;28;20529;-48
2021/12/30 02:50:19;;;;;;;1.70;1.17;;;14.20;99.90;;;;;;5048905;28;20490;-48
2021/12/30 02:52:46;;;;;;;1.50;0.80;;;14.20;99.90;;;;;;5060196;28;21487;-48
2021/12/30 02:55:14;;;;;;;1.70;1.37;;;14.20;99.90;;;;;;5060076;28;20486;-48
2021/12/30 02:57:41;;;;;;;1.70;1.10;;;14.20;99.90;;;;;;5082897;27;20568;-48
2021/12/30 03:00:09;;;;;;;1.70;1.00;;;14.20;99.90;;;;;;5069568;27;20465;-48
2021/12/30 03:02:37;;;;;;;1.80;1.30;;;14.30;99.90;;;;;;5062769;28;20491;-48
2021/12/30 03:05:06;;;;;;;4.87;1.00;;;14.30;99.90;;;;;;5058910;28;20978;-48
2021/12/30 03:07:33;;;;;;;1.70;0.90;;;14.40;99.90;;;;;;5057579;28;20539;-48
2021/12/30 03:10:00;;;;;;;2.27;1.90;;;14.30;99.90;;;;;;5061461;28;20493;-48
2021/12/30 03:12:28;;;;;;;1.80;1.13;;;14.30;99.90;;;;;;5086021;27;20540;-48
2021/12/30 03:14:56;;;;;;;1.90;1.10;;;14.30;99.90;;;;;;5065855;28;20493;-48
2021/12/30 03:17:23;;;;;;;1.80;1.10;;;14.30;99.90;;;;;;5092492;27;20567;-48
2021/12/30 03:19:55;;;;;;;1.63;1.10;;;14.30;99.90;;;;;;5099568;27;21050;-49
2021/12/30 03:22:22;;;;;;;2.07;0.87;;;14.30;99.90;;;;;;5097455;27;20498;-48
2021/12/30 03:24:49;;;;;;;1.90;1.10;;;14.30;99.90;;;;;;5077240;28;20484;-48
2021/12/30 03:27:15;;;;;;;1.73;1.33;;;14.30;99.90;;;;;;5073726;28;20535;-48
2021/12/30 03:29:44;;;;;;;1.83;0.80;;;14.30;99.90;;;;;;5080961;28;20475;-48
2021/12/30 03:32:10;;;;;;;1.60;1.03;;;14.30;99.90;;;;;;5069139;28;20529;-48
2021/12/30 03:34:37;;;;;;;1.60;1.10;;;14.30;99.90;;;;;;5094481;28;20534;-48
2021/12/30 03:37:04;;;;;;;1.67;1.00;;;14.30;99.90;;;;;;5061232;28;20477;-48
2021/12/30 03:39:31;;;;;;;1.40;0.70;;;14.40;99.90;;;;;;5065336;28;20489;-48
2021/12/30 03:41:59;;;;;;;1.60;0.90;;;14.40;99.90;;;;;;5064318;28;20483;-49
2021/12/30 03:44:25;;;;;;;2.40;0.90;;;14.40;99.90;;;;;;5058717;28;20486;-48
2021/12/30 03:46:54;;;;;;;1.43;0.60;;;14.40;99.90;;;;;;5054473;28;20886;-48
2021/12/30 03:49:21;;;;;;;1.40;0.80;;;14.40;99.90;;;;;;5063268;28;20882;-48
2021/12/30 03:51:47;;;;;;;1.57;1.00;;;14.40;99.90;;;;;;5066731;28;20867;-48
2021/12/30 03:54:15;;;;;;;1.67;0.97;;;14.40;99.90;;;;;;5055788;28;20479;-51
2021/12/30 03:56:41;;;;;;;2.60;0.77;;;14.40;99.90;;;;;;5066986;28;20891;-48
2021/12/30 03:59:09;;;;;;;2.20;1.10;;;14.40;99.90;;;;;;5049728;28;20575;-48
2021/12/30 04:01:36;;;;;;;3.07;0.77;;;14.50;99.90;;;;;;5067172;28;20569;-50
2021/12/30 04:04:05;;;;;;;1.50;0.87;;;14.50;99.90;;;;;;5054921;28;20632;-48
2021/12/30 04:06:32;;;;;;;1.60;0.93;;;14.50;99.90;;;;;;5071593;28;20529;-48
2021/12/30 04:08:59;;;;;;;1.83;1.03;;;14.50;99.90;;;;;;5056568;28;20456;-49
2021/12/30 04:11:30;;;;;;;1.53;0.90;;;14.50;99.90;;;;;;5053999;28;20482;-49
2021/12/30 04:13:57;;;;;;;2.33;0.90;;;14.50;99.90;;;;;;5059107;28;20694;-49
2021/12/30 04:16:23;;;;;;;3.30;0.90;;;14.50;99.90;;;;;;5059245;28;20463;-48
2021/12/30 04:18:50;;;;;;;1.87;1.20;;;14.50;99.90;;;;;;5058588;28;21053;-48
2021/12/30 04:21:20;;;;;;;1.60;0.90;;;14.50;99.90;;;;;;5060383;28;20496;-48
2021/12/30 04:23:47;;;;;;;1.73;1.00;;;14.50;99.90;;;;;;5058426;28;20547;-48
2021/12/30 04:26:13;;;;;;;1.40;0.60;;;14.60;99.90;;;;;;5056969;28;21377;-48
2021/12/30 04:28:41;;;;;;;1.77;0.90;;;14.60;99.90;;;;;;5064100;28;20489;-48
2021/12/30 04:31:08;;;;;;;2.57;0.80;;;14.60;99.90;;;;;;5063418;28;20829;-48
2021/12/30 04:33:35;;;;;;;2.17;0.83;;;14.60;99.90;;;;;;5066053;28;20555;-48
2021/12/30 04:36:02;;;;;;;2.63;0.90;;;14.60;99.90;;;;;;5055640;28;20554;-49
2021/12/30 04:38:32;;;;;;;1.40;0.60;;;14.60;99.90;;;;;;5056826;28;20467;-48
2021/12/30 04:40:59;;;;;;;3.30;0.70;;;14.60;99.90;;;;;;5053095;28;20490;-52
2021/12/30 04:43:26;;;;;;;4.83;0.77;;;14.70;99.90;;;;;;5053576;28;20934;-47
2021/12/30 04:45:53;;;;;;;2.33;0.80;;;14.70;99.90;;;;;;5063465;28;20853;-48
2021/12/30 04:48:21;;;;;;;1.40;0.60;;;14.60;99.90;;;;;;5048125;28;20601;-47
2021/12/30 04:50:49;;;;;;;1.40;0.70;;;14.60;99.90;;;;;;5072068;28;20975;-48
2021/12/30 04:53:18;;;;;;;1.30;0.60;;;14.60;99.90;;;;;;5060558;28;20481;-48
2021/12/30 04:55:48;;;;;;;1.50;0.80;;;14.50;99.90;;;;;;5058686;28;20564;-48
2021/12/30 04:58:16;;;;;;;1.67;0.83;;;14.60;99.90;;;;;;5057065;28;20567;-49
2021/12/30 05:00:44;;;;;;;1.43;0.70;;;14.60;99.90;;;;;;5049500;28;20488;-48
2021/12/30 05:03:12;;;;;;;1.67;0.70;;;14.50;99.90;;;;;;5070479;28;20558;-48
2021/12/30 05:05:40;;;;;;;7.00;1.13;;;14.50;99.90;;;;;;5064715;28;20526;-48
2021/12/30 05:08:07;;;;;;;1.50;0.80;;;14.50;99.90;;;;;;5061361;28;20486;-48
2021/12/30 05:10:35;;;;;;;1.30;0.50;;;14.50;99.90;;;;;;5073464;28;20550;-48
2021/12/30 05:13:04;;;;;;;1.77;1.00;;;14.40;99.90;;;;;;5074349;28;20462;-48
2021/12/30 05:15:31;;;;;;;2.47;0.60;;;14.40;99.90;;;;;;5086466;27;21335;-48
2021/12/30 05:17:58;;;;;;;2.17;1.07;;;14.50;99.90;;;;;;5068843;27;20493;-48
2021/12/30 05:20:25;;;;;;;1.43;0.80;;;14.50;99.90;;;;;;5094557;28;20493;-48
2021/12/30 05:22:52;;;;;;;1.60;1.00;;;14.60;99.90;;;;;;5076068;28;20511;-48
2021/12/30 05:25:19;;;;;;;1.57;0.80;;;14.60;99.90;;;;;;5078713;28;20493;-48
2021/12/30 05:27:47;;;;;;;2.27;1.00;;;14.50;99.90;;;;;;5076525;28;21163;-48
2021/12/30 05:30:16;;;;;;;2.00;1.00;;;14.60;99.90;;;;;;5075016;28;20484;-48
2021/12/30 05:32:43;;;;;;;1.50;0.90;;;14.50;99.90;;;;;;5079559;27;20516;-48
2021/12/30 05:35:11;;;;;;;1.40;0.70;;;14.60;99.90;;;;;;5091436;28;20538;-47
2021/12/30 05:37:39;;;;;;;3.30;0.90;;;14.50;99.90;;;;;;5083018;28;20489;-48
2021/12/30 05:40:08;;;;;;;1.50;0.90;;;14.60;99.90;;;;;;5078282;28;20531;-48
2021/12/30 05:42:35;;;;;;;1.70;1.00;;;14.50;99.90;;;;;;5083412;28;20476;-48
2021/12/30 05:45:02;;;;;;;2.43;0.87;;;14.60;99.90;;;;;;5079312;28;20534;-48
2021/12/30 05:47:30;;;;;;;4.47;0.80;;;14.60;99.90;;;;;;5080210;28;20481;-47
2021/12/30 05:49:57;;;;;;;1.50;0.90;;;14.60;99.90;;;;;;5070139;28;20570;-47
2021/12/30 05:52:23;;;;;;;1.40;0.77;;;14.60;99.90;;;;;;5103765;27;20883;-48
2021/12/30 05:54:50;;;;;;;2.87;0.90;;;14.60;99.90;;;;;;5083911;28;20825;-47
2021/12/30 05:57:17;;;;;;;1.30;0.53;;;14.60;99.90;;;;;;5075798;28;20492;-47
2021/12/30 05:59:43;;;;;;;1.60;0.87;;;14.50;99.90;;;;;;5079974;28;20479;-48
2021/12/30 06:02:10;;;;;;;1.70;0.80;;;14.60;99.90;;;;;;5078012;28;20621;-48
2021/12/30 06:04:38;;;;;;;1.60;0.80;;;14.60;99.90;;;;;;5083957;27;20496;-48
2021/12/30 06:07:05;;;;;;;2.20;1.00;;;14.60;99.90;;;;;;5079576;27;21603;-47
2021/12/30 06:09:31;;;;;;;2.83;1.03;;;14.60;99.90;;;;;;5094016;27;20484;-48
2021/12/30 06:11:58;;;;;;;1.40;0.70;;;14.60;99.90;;;;;;5081236;27;20479;-48
2021/12/30 06:14:25;;;;;;;3.00;0.90;;;14.60;99.90;;;;;;5096503;27;21016;-48
2021/12/30 06:16:52;;;;;;;1.43;0.80;;;14.60;99.90;;;;;;5065916;28;20890;-47
2021/12/30 06:19:18;;;;;;;1.40;0.60;;;14.60;99.90;;;;;;5063462;28;20517;-48
2021/12/30 06:21:46;;;;;;;1.73;0.80;;;14.70;99.90;;;;;;5062091;28;21677;-47
2021/12/30 06:24:13;;;;;;;1.50;0.70;;;14.60;99.90;;;;;;5063833;28;20552;-48
2021/12/30 06:26:40;;;;;;;1.60;0.80;;;14.60;99.90;;;;;;5054458;28;20613;-48
2021/12/30 06:29:07;;;;;;;2.00;1.00;;;14.70;99.90;;;;;;5069887;28;20486;-49
2021/12/30 06:31:34;;;;;;;4.57;0.80;;;14.70;99.90;;;;;;5057622;28;20484;-48
2021/12/30 06:34:01;;;;;;;2.73;0.73;;;14.60;99.90;;;;;;5069605;28;20478;-48
2021/12/30 06:36:27;;;;;;;1.70;0.80;;;14.60;99.90;;;;;;5057184;28;20535;-47
2021/12/30 06:38:55;;;;;;;1.50;0.77;;;14.60;99.90;;;;;;5062620;28;20987;-47
2021/12/30 06:41:22;;;;;;;1.40;0.70;;;14.60;99.90;;;;;;5061420;28;20607;-48
2021/12/30 06:43:49;;;;;;;1.50;0.70;;;14.70;99.90;;;;;;5060888;28;20526;-47
2021/12/30 06:46:19;;;;;;;1.50;0.70;;;14.60;99.90;;;;;;5057324;28;20539;-48
2021/12/30 06:48:46;;;;;;;1.60;1.00;;;14.60;99.90;;;;;;5062411;28;21070;-48
2021/12/30 06:51:13;;;;;;;4.20;0.87;;;14.60;99.90;;;;;;5062295;27;20490;-48
2021/12/30 06:53:40;;;;;;;1.60;0.73;;;14.70;99.90;;;;;;5088380;27;20537;-48
2021/12/30 06:56:09;;;;;;;5.23;0.90;;;14.50;99.90;;;;;;5050067;28;21022;-50
2021/12/30 06:58:36;;;;;;;1.50;0.70;;;14.60;99.90;;;;;;5055439;28;20498;-48
2021/12/30 07:01:03;;;;;;;1.40;0.70;;;14.60;99.90;;;;;;5056965;28;21061;-48
2021/12/30 07:03:30;;;;;;;1.50;0.90;;;14.70;99.90;;;;;;5054126;28;20490;-48
2021/12/30 07:05:57;;;;;;;1.50;0.80;;;14.60;99.90;;;;;;5045812;28;21140;-49
2021/12/30 07:08:24;;;;;;;1.40;0.70;;;14.60;99.90;;;;;;5045201;28;20490;-48
2021/12/30 07:10:51;;;;;;;1.40;0.60;;;14.60;99.90;;;;;;5043761;28;20461;-48
2021/12/30 07:13:19;;;;;;;2.80;0.90;;;14.60;99.90;;;;;;5065504;28;20490;-48
2021/12/30 07:15:47;;;;;;;1.40;0.70;;;14.60;99.90;;;;;;5057540;28;20543;-48
2021/12/30 07:18:14;;;;;;;1.90;0.80;;;14.60;99.90;;;;;;5060237;28;20875;-47
2021/12/30 07:20:40;;;;;;;1.50;0.73;;;14.50;99.90;;;;;;5052452;28;20998;-48
2021/12/30 07:23:07;;;;;;;1.40;0.70;;;14.50;99.90;;;;;;5054125;28;20526;-47
2021/12/30 07:25:34;;;;;;;1.40;0.70;;;14.50;99.90;;;;;;5054100;28;20683;-48
2021/12/30 07:28:03;;;;;;;1.40;0.70;;;14.50;99.90;;;;;;5059679;28;20587;-49
2021/12/30 07:30:32;;;;;;;1.73;0.70;;;14.60;99.90;;;;;;5061433;28;20560;-48
2021/12/30 07:32:59;;;;;;;2.53;0.60;;;14.60;99.90;;;;;;5056214;28;20484;-48
2021/12/30 07:35:26;;;;;;;1.97;0.90;;;14.60;99.90;;;;;;5070683;28;20908;-48
2021/12/30 07:37:53;;;;;;;1.50;0.97;;;14.60;99.90;;;;;;5055619;28;20480;-48
2021/12/30 07:40:21;;;;;;;1.40;0.60;;;14.70;99.90;;;;;;5056427;28;20487;-48
2021/12/30 07:42:48;;;;;;;1.70;0.80;;;14.60;99.90;;;;;;5051610;28;20482;-48
2021/12/30 07:45:15;;;;;;;1.40;0.70;;;14.70;99.90;;;;;;5054439;28;20484;-48
2021/12/30 07:47:44;;;;;;;1.47;0.73;;;14.70;99.90;;;;;;5054363;28;21296;-48
2021/12/30 07:50:12;;;;;;;1.50;0.50;;;14.60;99.90;;;;;;5057600;28;20496;-48
2021/12/30 07:52:40;;;;;;;1.70;0.70;;;14.60;99.90;;;;;;5058959;28;21074;-48
2021/12/30 07:55:08;;;;;;;2.70;1.20;;;14.60;99.90;;;;;;5051076;28;20481;-48
2021/12/30 07:57:35;;;;;;;1.80;1.10;;;14.60;99.90;;;;;;5050057;28;20598;-49
2021/12/30 08:00:05;;;;;;;3.53;1.10;;;14.60;99.90;;;;;;5038499;28;20515;-48
2021/12/30 08:02:32;;;;;;;1.50;0.87;;;14.60;99.90;;;;;;5060796;28;20477;-48
2021/12/30 08:05:00;;;;;;;1.50;0.97;;;14.70;99.90;;;;;;5047913;28;20891;-48
2021/12/30 08:07:27;;;;;;;1.67;1.00;;;14.70;99.90;;;;;;5062335;28;20843;-47
2021/12/30 08:09:54;;;;;;;2.70;1.40;;;14.70;99.90;;;;;;5055287;28;20480;-48
2021/12/30 08:12:21;;;;;;;1.50;0.90;;;14.60;99.90;;;;;;5061295;28;20522;-47
2021/12/30 08:14:48;;;;;;;1.80;0.90;;;14.60;99.90;;;;;;5066831;27;21998;-47
2021/12/30 08:17:14;;;;;;;2.10;1.53;;;14.70;99.90;;;;;;5057431;28;20485;-47
2021/12/30 08:19:41;;;;;;;1.53;1.00;;;14.70;99.90;;;;;;5062311;28;20517;-48
2021/12/30 08:22:09;;;;;;;2.23;1.50;;;14.70;99.90;;;;;;5056618;28;20902;-47
2021/12/30 08:24:36;;;;;;;1.60;0.97;;;14.70;99.90;;;;;;5065804;28;20549;-50
2021/12/30 08:27:03;;;;;;;2.60;1.50;;;14.70;99.90;;;;;;5059537;28;20451;-48
2021/12/30 08:29:31;;;;;;;1.53;0.93;;;14.70;99.90;;;;;;5068231;27;20509;-47
2021/12/30 08:31:58;;;;;;;1.83;1.10;;;14.60;99.90;;;;;;5047198;27;21064;-48
2021/12/30 08:34:25;;;;;;;5.23;1.17;;;14.60;99.90;;;;;;5065006;27;20869;-48
2021/12/30 08:36:52;;;;;;;2.17;1.07;;;14.70;99.90;;;;;;5054074;27;20570;-47
2021/12/30 08:39:20;;;;;;;4.63;1.23;;;14.70;99.90;;;;;;5055947;28;20587;-48
2021/12/30 08:41:47;;;;;;;2.20;1.10;;;14.80;99.90;;;;;;5052002;28;20587;-48
2021/12/30 08:44:13;;;;;;;1.80;0.83;;;14.80;99.90;;;;;;5075380;28;20494;-47
2021/12/30 08:46:40;;;;;;;1.60;1.00;;;14.70;99.90;;;;;;5057689;28;20516;-47
2021/12/30 08:49:07;;;;;;;1.90;1.10;;;14.80;99.90;;;;;;5080339;27;20928;-47
2021/12/30 08:51:33;;;;;;;1.70;1.27;;;14.80;99.90;;;;;;5047810;28;20567;-47
2021/12/30 08:54:00;;;;;;;1.60;1.00;;;14.60;99.90;;;;;;5075887;27;20477;-47
2021/12/30 08:56:28;;;;;;;1.80;1.23;;;14.70;99.90;;;;;;5059190;28;20899;-48
2021/12/30 08:58:55;;;;;;;1.60;0.93;;;14.80;99.90;;;;;;5064039;28;21261;-48
2021/12/30 09:01:21;;;;;;;1.80;1.20;;;14.80;99.90;;;;;;5065030;28;20488;-48
2021/12/30 09:03:48;;;;;;;2.20;1.30;;;14.90;99.90;;;;;;5065589;28;20485;-47
2021/12/30 09:06:15;;;;;;;2.77;1.30;;;14.90;99.90;;;;;;5063292;28;21131;-47
2021/12/30 09:08:41;;;;;;;2.03;1.30;;;14.90;99.90;;;;;;5056451;28;20880;-47
2021/12/30 09:11:08;;;;;;;1.70;1.00;;;14.90;99.90;;;;;;5052082;28;20475;-47
2021/12/30 09:13:36;;;;;;;3.33;0.77;;;14.90;99.90;;;;;;5048030;28;20488;-47
2021/12/30 09:16:03;;;;;;;3.63;0.90;;;14.90;99.90;;;;;;5035493;28;20569;-48
2021/12/30 09:18:30;;;;;;;1.53;0.90;;;14.90;99.90;;;;;;5036127;28;20534;-48
2021/12/30 09:20:57;;;;;;;1.50;0.90;;;14.90;99.90;;;;;;5034523;28;21110;-48
2021/12/30 09:23:24;;;;;;;2.73;1.20;;;14.90;99.90;;;;;;5059191;28;20486;-48
2021/12/30 09:25:52;;;;;;;1.90;1.20;;;15.00;99.90;;;;;;5051455;28;20508;-47
2021/12/30 09:28:19;;;;;;;2.10;1.50;;;14.90;99.90;;;;;;5052579;28;21027;-48
2021/12/30 09:30:47;;;;;;;2.57;1.80;;;15.00;99.90;;;;;;5046389;28;20671;-48
2021/12/30 09:33:15;;;;;;;3.70;2.27;;;15.00;99.90;;;;;;5048898;28;20505;-48
2021/12/30 09:35:44;;;;;;;2.57;2.37;;;15.00;99.90;;;;;;5049073;28;21029;-48
2021/12/30 09:38:11;;;;;;;2.43;2.20;;;15.00;99.90;;;;;;5058523;28;20460;-48
2021/12/30 09:40:38;;;;;;;2.07;1.87;;;15.10;99.90;;;;;;5047955;28;20545;-48
2021/12/30 09:43:04;;;;;;;3.33;2.53;;;15.10;99.90;;;;;;5044395;28;20490;-49
2021/12/30 09:45:34;;;;;;;2.10;1.90;;;15.00;99.90;;;;;;5045226;28;20455;-48
2021/12/30 09:48:06;;;;;;;2.93;2.63;;;15.00;99.90;;;;;;5032546;28;20650;-48
2021/12/30 09:50:35;;;;;;;1.90;1.53;;;15.00;99.90;;;;;;5048862;28;20544;-48
2021/12/30 09:53:03;;;;;;;2.20;2.00;;;15.00;99.90;;;;;;5049852;28;20487;-48
2021/12/30 09:55:30;;;;;;;1.90;1.70;;;15.00;99.90;;;;;;5040814;28;20492;-48
2021/12/30 09:57:57;;;;;;;1.80;1.50;;;15.00;99.90;;;;;;5036744;28;20491;-49
2021/12/30 10:00:26;;;;;;;1.80;1.30;;;15.10;99.90;;;;;;5045742;28;20547;-47
2021/12/30 10:02:53;;;;;;;1.97;1.60;;;15.10;99.90;;;;;;5019931;28;20952;-48
2021/12/30 10:05:28;;;;;;;1.80;1.33;;;15.10;99.90;;;;;;5051170;28;20513;-47
2021/12/30 10:08:12;;;;;;;1.70;1.07;;;15.10;99.90;;;;;;5033004;28;20560;-48
2021/12/30 10:10:40;;;;;;;4.03;1.27;;;15.10;99.90;;;;;;5041915;28;20448;-48
2021/12/30 10:13:20;;;;;;;2.77;1.00;;;15.10;99.90;;;;;;5046301;28;21453;-47
2021/12/30 10:15:49;;;;;;;3.13;1.20;;;15.20;99.90;;;;;;5032444;28;20895;-48
2021/12/30 10:18:17;;;;;;;2.37;1.20;;;15.10;99.90;;;;;;5059783;28;20862;-47
2021/12/30 10:20:47;;;;;;;1.70;1.20;;;15.10;99.90;;;;;;5079709;27;20477;-48
2021/12/30 10:23:16;;;;;;;1.70;1.20;;;15.20;99.90;;;;;;5060232;28;20480;-48
2021/12/30 10:25:45;;;;;;;1.70;1.33;;;15.10;99.90;;;;;;5057636;28;20991;-47
2021/12/30 10:28:27;;;;;;;2.03;1.20;;;15.20;99.90;;;;;;5062603;28;20504;-47
2021/12/30 10:30:56;;;;;;;2.03;0.90;;;15.20;99.90;;;;;;5060203;28;20495;-48
2021/12/30 10:33:25;;;;;;;1.57;0.90;;;15.20;99.90;;;;;;5055477;28;20552;-47
2021/12/30 10:35:54;;;;;;;1.60;0.97;;;15.20;99.90;;;;;;5064519;28;21107;-48
2021/12/30 10:38:21;;;;;;;2.03;1.13;;;15.20;99.90;;;;;;5071598;28;20461;-48
2021/12/30 10:40:50;;;;;;;1.80;0.93;;;15.20;99.90;;;;;;5059920;28;20564;-47
2021/12/30 10:43:25;;;;;;;1.80;1.10;;;15.20;99.90;;;;;;5070416;28;20874;-47
2021/12/30 10:46:19;;;;;;;1.60;0.90;;;15.20;99.90;;;;;;5060071;27;20460;-47
2021/12/30 10:48:58;;;;;;;1.70;1.00;;;15.30;99.90;;;;;;5063067;28;20484;-48
2021/12/30 10:51:31;;;;;;;2.17;0.93;;;15.30;99.90;;;;;;5048630;28;20551;-48
2021/12/30 10:53:59;;;;;;;2.70;0.97;;;15.30;99.90;;;;;;5067699;28;20509;-47
2021/12/30 10:56:32;;;;;;;1.80;1.00;;;15.30;99.90;;;;;;5064757;28;20476;-48
2021/12/30 10:59:18;;;;;;;1.50;0.90;;;15.40;99.90;;;;;;5061421;28;20539;-48
2021/12/30 11:01:46;;;;;;;1.40;0.70;;;15.30;99.90;;;;;;5056315;28;20479;-48
2021/12/30 11:04:14;;;;;;;1.67;1.17;;;15.30;99.90;;;;;;5060696;28;20831;-48
2021/12/30 11:06:42;;;;;;;2.27;1.10;;;15.30;99.90;;;;;;5072213;27;20546;-48
2021/12/30 11:09:19;;;;;;;3.63;1.20;;;15.40;99.90;;;;;;5066771;28;20542;-48
2021/12/30 11:11:51;;;;;;;1.70;1.10;;;15.40;99.90;;;;;;5056875;28;20566;-48
2021/12/30 11:14:20;;;;;;;2.53;1.00;;;15.40;99.90;;;;;;5055892;28;20563;-48
2021/12/30 11:17:03;;;;;;;1.73;0.90;;;15.40;99.90;;;;;;5064594;27;20448;-48
2021/12/30 11:19:31;;;;;;;1.80;1.20;;;15.30;99.90;;;;;;5070575;27;20856;-48
2021/12/30 11:22:01;;;;;;;1.90;0.77;;;15.30;99.90;;;;;;5060672;28;20521;-48
2021/12/30 11:24:29;;;;;;;1.70;1.10;;;15.30;99.90;;;;;;5065919;27;20900;-48
2021/12/30 11:26:56;;;;;;;2.37;1.00;;;15.20;99.90;;;;;;5082525;27;20538;-48
2021/12/30 11:29:24;;;;;;;1.70;0.90;;;15.30;99.90;;;;;;5060065;28;20480;-48
2021/12/30 11:31:52;;;;;;;1.70;1.20;;;15.30;99.90;;;;;;5054398;27;20479;-48
2021/12/30 11:34:22;;;;;;;1.50;0.70;;;15.40;99.90;;;;;;5073896;27;20461;-47
2021/12/30 11:36:48;;;;;;;1.70;1.10;;;15.40;99.90;;;;;;5072403;27;20542;-48
2021/12/30 11:39:19;;;;;;;2.10;1.10;;;15.40;99.90;;;;;;5061955;28;20926;-50
2021/12/30 11:41:54;;;;;;;2.40;1.23;;;15.40;99.90;;;;;;5060936;28;20477;-48
2021/12/30 11:44:42;;;;;;;1.53;0.87;;;15.40;99.90;;;;;;5053794;27;20528;-48
2021/12/30 11:47:30;;;;;;;2.70;1.17;;;15.40;99.90;;;;;;5064749;27;20572;-47
2021/12/30 11:50:01;;;;;;;4.13;1.60;;;15.40;99.90;;;;;;5062701;27;20542;-48
2021/12/30 11:53:03;;;;;;;2.33;0.80;;;15.40;99.90;;;;;;5090953;27;20813;-48
2021/12/30 11:55:56;;;;;;;1.77;0.77;;;15.40;99.90;;;;;;5056928;28;20841;-48
2021/12/30 11:58:52;;;;;;;1.47;0.80;;;15.40;99.90;;;;;;5054994;28;20928;-49
2021/12/30 12:01:44;;;;;;;1.40;0.80;;;15.40;99.90;;;;;;5047098;28;21087;-48
2021/12/30 12:04:16;;;;;;;3.50;0.97;;;15.50;99.90;;;;;;5045831;28;20547;-48
2021/12/30 12:06:47;;;;;;;1.50;0.73;;;15.40;99.90;;;;;;5060578;28;20495;-48
2021/12/30 12:09:33;;;;;;;1.50;0.67;;;15.50;99.90;;;;;;5058500;27;20940;-48
2021/12/30 12:12:03;;;;;;;1.40;0.70;;;15.50;99.90;;;;;;5067803;27;20846;-48
2021/12/30 12:14:32;;;;;;;1.50;0.70;;;15.50;99.90;;;;;;5087163;27;20484;-48
2021/12/30 12:17:01;;;;;;;2.17;0.77;;;15.60;99.90;;;;;;5065433;28;20477;-51
2021/12/30 12:19:37;;;;;;;1.90;0.70;;;15.60;99.90;;;;;;5075712;27;20888;-48
2021/12/30 12:22:07;;;;;;;2.40;1.00;;;15.60;99.90;;;;;;5065800;27;20780;-49
2021/12/30 12:24:41;;;;;;;2.40;0.97;;;15.60;99.90;;;;;;5057404;28;20516;-49
2021/12/30 12:27:13;;;;;;;2.00;0.80;;;15.70;99.90;;;;;;5062438;28;20483;-48
2021/12/30 12:29:47;;;;;;;1.90;0.80;;;15.70;99.90;;;;;;5067259;28;20467;-48
2021/12/30 12:32:16;;;;;;;1.43;0.73;;;15.70;99.90;;;;;;5061005;28;20484;-48
2021/12/30 12:34:45;;;;;;;1.40;0.80;;;15.70;99.90;;;;;;5059607;28;20477;-48
2021/12/30 12:37:48;;;;;;;1.63;0.83;;;15.70;99.90;;;;;;5083019;27;20515;-48
2021/12/30 12:40:27;;;;;;;1.40;0.70;;;15.70;99.90;;;;;;5060438;28;20479;-48
2021/12/30 12:42:58;;;;;;;1.60;0.80;;;15.60;99.90;;;;;;5061785;28;20483;-48
2021/12/30 12:45:28;;;;;;;1.47;0.70;;;15.70;99.90;;;;;;5079482;27;20552;-48
2021/12/30 12:48:24;;;;;;;1.50;0.70;;;15.60;99.90;;;;;;5076993;27;20483;-48
2021/12/30 12:50:53;;;;;;;3.97;0.90;;;15.60;99.90;;;;;;5060620;27;20546;-49
2021/12/30 12:53:22;;;;;;;1.70;0.93;;;15.60;99.90;;;;;;5087185;27;20476;-48
2021/12/30 12:55:49;;;;;;;3.07;0.77;;;15.70;99.90;;;;;;5068338;28;20871;-48